createdAt,value
2023-03-02T15:23:52.021Z,73.91
2023-03-02T15:24:51.883Z,73.91
2023-03-02T15:25:51.786Z,74.32
2023-03-02T15:26:51.796Z,74.22
2023-03-02T15:27:51.747Z,74.53
2023-03-02T15:28:51.708Z,74.32
2023-03-02T15:29:51.774Z,74.02
2023-03-02T15:30:51.728Z,74.02
2023-03-02T15:31:51.775Z,73.91
2023-03-02T15:32:51.706Z,74.05
2023-03-02T15:33:51.650Z,73.94
2023-03-02T15:34:51.665Z,74.46
2023-03-02T15:35:53.249Z,74.26
2023-03-02T15:36:51.639Z,73.94
2023-03-02T15:37:51.600Z,74.05
2023-03-02T15:38:51.609Z,74.26
2023-03-02T15:39:51.556Z,74.15
2023-03-02T15:40:51.539Z,74.15
2023-03-02T15:41:51.659Z,74.36
2023-03-02T15:42:51.574Z,74.60
2023-03-02T15:43:51.484Z,74.05
2023-03-02T15:44:51.621Z,74.19
2023-03-02T15:45:51.494Z,74.50
2023-03-02T15:46:51.719Z,74.50
2023-03-02T15:47:51.904Z,74.19
2023-03-02T15:48:51.456Z,74.08
2023-03-02T15:49:51.482Z,74.29
2023-03-02T15:50:58.641Z,74.71
2023-03-02T15:51:51.590Z,74.60
2023-03-02T15:52:51.426Z,74.29
2023-03-02T15:53:51.431Z,74.60
2023-03-02T15:54:51.348Z,74.60
2023-03-02T15:55:51.381Z,74.50
2023-03-02T15:56:51.345Z,74.50
2023-03-02T15:57:51.338Z,74.81
2023-03-02T15:58:51.310Z,74.91
2023-03-02T15:59:51.348Z,74.71
2023-03-02T16:00:51.327Z,74.29
2023-03-02T16:01:51.298Z,74.43
2023-03-02T16:02:51.327Z,74.53
2023-03-02T16:03:51.306Z,74.63
2023-03-02T16:04:51.279Z,74.53
2023-03-02T16:05:51.289Z,74.11
2023-03-02T16:06:51.238Z,74.53
2023-03-02T16:07:51.249Z,74.43
2023-03-02T16:08:51.215Z,74.32
2023-03-02T16:09:51.150Z,74.22
2023-03-02T16:10:51.225Z,74.43
2023-03-02T16:11:51.405Z,74.32
2023-03-02T16:12:51.167Z,74.32
2023-03-02T16:13:51.132Z,74.43
2023-03-02T16:14:51.097Z,74.77
2023-03-02T16:15:51.167Z,74.88
2023-03-02T16:16:51.168Z,74.98
2023-03-02T16:17:51.100Z,75.19
2023-03-02T16:18:51.552Z,75.19
2023-03-02T16:19:51.054Z,75.09
2023-03-02T16:20:50.997Z,75.19
2023-03-02T16:21:51.067Z,75.09
2023-03-02T16:22:51.058Z,75.29
2023-03-02T16:23:51.015Z,75.19
2023-03-02T16:24:50.966Z,75.29
2023-03-02T16:25:51.012Z,75.40
2023-03-02T16:26:50.987Z,75.60
2023-03-02T16:27:50.937Z,75.92
2023-03-02T16:28:50.888Z,75.92
2023-03-02T16:29:50.953Z,76.02
2023-03-02T16:30:50.905Z,76.06
2023-03-02T16:31:50.931Z,76.16
2023-03-02T16:32:50.884Z,76.06
2023-03-02T16:33:50.850Z,76.26
2023-03-02T16:34:50.930Z,76.06
2023-03-02T16:35:50.855Z,76.16
2023-03-02T16:36:50.830Z,76.26
2023-03-02T16:37:50.804Z,76.57
2023-03-02T16:38:50.879Z,76.37
2023-03-02T16:39:50.801Z,76.37
2023-03-02T16:40:50.772Z,76.57
2023-03-02T16:41:50.817Z,76.68
2023-03-02T16:42:50.758Z,76.50
2023-03-02T16:43:50.722Z,76.50
2023-03-02T16:44:50.731Z,76.81
2023-03-02T16:45:50.793Z,76.50
2023-03-02T16:46:50.724Z,76.71
2023-03-02T16:47:50.690Z,76.61
2023-03-02T16:48:50.813Z,76.71
2023-03-02T16:49:50.618Z,76.71
2023-03-02T16:50:50.616Z,76.71
2023-03-02T16:51:50.614Z,76.81
2023-03-02T16:52:50.632Z,76.92
2023-03-02T16:53:50.662Z,76.50
2023-03-02T16:54:50.602Z,76.43
2023-03-02T16:55:50.557Z,76.54
2023-03-02T16:56:50.621Z,76.54
2023-03-02T16:57:50.496Z,76.54
2023-03-02T16:58:50.538Z,76.54
2023-03-02T16:59:50.530Z,76.75
2023-03-02T17:00:50.634Z,76.68
2023-03-02T17:01:50.591Z,76.78
2023-03-02T17:02:50.461Z,76.89
2023-03-02T17:03:50.550Z,76.89
2023-03-02T17:04:50.476Z,76.99
2023-03-02T17:05:50.425Z,77.20
2023-03-02T17:07:05.685Z,76.89
2023-03-02T17:07:51.432Z,76.89
2023-03-02T17:08:50.400Z,77.23
2023-03-02T17:09:50.397Z,77.44
2023-03-02T17:10:50.408Z,77.55
2023-03-02T17:11:50.382Z,77.55
2023-03-02T17:12:50.306Z,77.65
2023-03-02T17:13:50.347Z,77.55
2023-03-02T17:14:50.315Z,77.65
2023-03-02T17:15:50.434Z,77.65
2023-03-02T17:16:50.308Z,77.75
2023-03-02T17:17:50.306Z,77.75
2023-03-02T17:18:50.295Z,77.79
2023-03-02T17:19:51.480Z,77.69
2023-03-02T17:20:50.225Z,77.79
2023-03-02T17:21:50.207Z,77.69
2023-03-02T17:22:50.209Z,77.89
2023-03-02T17:23:50.239Z,78.00
2023-03-02T17:24:50.182Z,77.89
2023-03-02T17:25:50.202Z,77.69
2023-03-02T17:26:50.161Z,77.69
2023-03-02T17:27:50.137Z,77.79
2023-03-02T17:28:50.134Z,77.79
2023-03-02T17:29:51.140Z,77.89
2023-03-02T17:30:50.146Z,78.03
2023-03-02T17:31:50.095Z,78.14
2023-03-02T17:32:50.126Z,77.72
2023-03-02T17:33:50.068Z,77.83
2023-03-02T17:34:50.100Z,77.83
2023-03-02T17:35:50.058Z,77.83
2023-03-02T17:36:50.021Z,77.72
2023-03-02T17:37:50.072Z,77.40
2023-03-02T17:38:50.006Z,77.72
2023-03-02T17:39:50.062Z,77.83
2023-03-02T17:40:52.312Z,77.75
2023-03-02T17:41:50.418Z,77.55
2023-03-02T17:42:54.475Z,77.65
2023-03-02T17:43:49.883Z,77.75
2023-03-02T17:44:50.214Z,77.65
2023-03-02T17:45:49.982Z,77.55
2023-03-02T17:46:49.972Z,77.65
2023-03-02T17:47:50.236Z,77.65
2023-03-02T17:48:49.883Z,77.65
2023-03-02T17:49:49.958Z,77.44
2023-03-02T17:50:49.862Z,77.34
2023-03-02T17:51:50.069Z,77.55
2023-03-02T17:54:39.258Z,77.27
2023-03-02T17:55:47.289Z,77.37
2023-03-02T17:56:38.716Z,77.89
2023-03-02T17:57:38.576Z,77.69
2023-03-02T17:58:44.998Z,77.89
2023-03-02T17:59:39.517Z,77.69
2023-03-02T18:00:38.614Z,77.27
2023-03-02T18:01:38.528Z,76.99
2023-03-02T18:02:38.542Z,77.31
2023-03-02T18:03:38.645Z,77.41
2023-03-02T18:04:38.495Z,77.20
2023-03-02T18:05:38.477Z,77.41
2023-03-02T18:06:38.485Z,77.93
2023-03-02T18:07:38.429Z,78.07
2023-03-02T18:08:38.432Z,78.28
2023-03-02T18:09:38.473Z,78.38
2023-03-02T18:10:38.393Z,78.38
2023-03-02T18:11:38.383Z,77.97
2023-03-02T18:12:38.403Z,78.38
2023-03-02T18:13:38.370Z,78.69
2023-03-02T18:14:38.351Z,78.59
2023-03-02T18:15:38.399Z,79.05
2023-03-02T18:16:38.355Z,78.94
2023-03-02T18:17:38.322Z,78.94
2023-03-02T18:18:38.310Z,78.94
2023-03-02T18:19:38.329Z,78.83
2023-03-02T18:20:38.259Z,78.73
2023-03-02T18:21:38.288Z,78.52
2023-03-02T18:22:38.236Z,78.83
2023-03-02T18:23:38.197Z,79.05
2023-03-02T18:24:38.285Z,78.11
2023-03-02T18:25:38.201Z,78.00
2023-03-02T18:26:38.189Z,78.31
2023-03-02T18:27:38.320Z,78.52
2023-03-02T18:28:38.177Z,78.73
2023-03-02T18:29:38.196Z,78.77
2023-03-02T18:30:38.144Z,78.87
2023-03-02T18:31:38.164Z,79.08
2023-03-02T18:32:38.123Z,78.97
2023-03-02T18:33:38.898Z,78.97
2023-03-02T18:34:38.142Z,78.97
2023-03-02T18:35:38.110Z,79.08
2023-03-02T18:36:38.101Z,79.08
2023-03-02T18:37:38.096Z,79.19
2023-03-02T18:38:38.071Z,79.29
2023-03-02T18:39:38.038Z,79.29
2023-03-02T18:40:37.991Z,79.39
2023-03-02T18:41:38.061Z,79.29
2023-03-02T18:42:37.965Z,78.77
2023-03-02T18:43:37.987Z,78.77
2023-03-02T18:44:37.936Z,78.35
2023-03-02T18:45:37.996Z,78.14
2023-03-02T18:46:38.174Z,78.14
2023-03-02T18:47:37.887Z,78.35
2023-03-02T18:48:37.893Z,78.35
2023-03-02T18:49:37.905Z,78.49
2023-03-02T18:50:37.904Z,78.59
2023-03-02T18:51:37.889Z,78.49
2023-03-02T18:52:37.858Z,78.80
2023-03-02T18:53:37.835Z,79.01
2023-03-02T18:54:37.862Z,78.49
2023-03-02T18:55:37.843Z,78.70
2023-03-02T18:56:37.830Z,78.80
2023-03-02T18:57:38.761Z,79.01
2023-03-02T18:58:37.793Z,79.01
2023-03-02T18:59:37.728Z,78.84
2023-03-02T19:00:37.836Z,78.84
